createdAt,value
2023-05-05T00:04:24.868Z,4.65
2023-05-05T00:09:26.481Z,4.63
2023-05-05T00:14:28.147Z,5.10
2023-05-05T00:19:29.754Z,4.35
2023-05-05T00:24:31.380Z,4.43
2023-05-05T00:29:33.013Z,4.10
2023-05-05T00:34:34.642Z,3.40
2023-05-05T00:39:36.276Z,4.63
2023-05-05T00:44:41.852Z,4.43
2023-05-05T00:49:43.528Z,5.03
2023-05-05T00:54:45.169Z,4.60
2023-05-05T00:59:49.924Z,3.90
2023-05-05T01:04:51.716Z,4.20
2023-05-05T01:10:18.752Z,4.22
2023-05-05T01:15:34.159Z,5.07
2023-05-05T01:20:42.993Z,4.40
2023-05-05T01:26:14.515Z,4.18
2023-05-05T01:31:40.524Z,4.57
2023-05-05T01:36:49.681Z,5.13
2023-05-05T01:41:56.886Z,4.65
2023-05-05T01:47:01.110Z,4.28
2023-05-05T01:52:04.936Z,4.03
2023-05-05T01:57:08.851Z,4.10
2023-05-05T02:02:12.145Z,4.25
2023-05-05T02:07:15.283Z,4.50
2023-05-05T02:12:19.318Z,4.70
2023-05-05T02:17:23.130Z,4.50
2023-05-05T02:22:25.880Z,4.18
2023-05-05T02:27:28.694Z,4.68
2023-05-05T02:32:40.926Z,4.28
2023-05-05T02:37:46.560Z,4.57
2023-05-05T02:42:51.593Z,4.50
2023-05-05T02:47:55.004Z,4.22
2023-05-05T02:53:01.600Z,4.78
2023-05-05T02:58:14.019Z,4.38
2023-05-05T03:03:28.277Z,4.03
2023-05-05T03:08:52.700Z,5.28
2023-05-05T03:14:07.842Z,4.38
2023-05-05T03:19:12.435Z,4.82
2023-05-05T03:24:17.455Z,4.93
2023-05-05T03:29:25.447Z,4.15
2023-05-05T03:34:27.723Z,4.90
2023-05-05T03:39:29.605Z,4.47
2023-05-05T03:44:31.988Z,5.63
2023-05-05T03:49:33.771Z,5.03
2023-05-05T03:54:35.676Z,4.43
2023-05-05T03:59:37.367Z,4.95
2023-05-05T04:04:39.335Z,4.68
2023-05-05T04:09:44.580Z,4.70
2023-05-05T04:14:47.102Z,4.82
2023-05-05T04:19:48.897Z,4.55
2023-05-05T04:24:50.837Z,4.28
2023-05-05T04:29:52.930Z,4.70
2023-05-05T04:34:54.748Z,4.25
2023-05-05T04:39:57.309Z,5.22
2023-05-05T04:44:59.432Z,5.25
2023-05-05T04:50:01.277Z,5.00
2023-05-05T04:55:04.384Z,4.95
2023-05-05T05:00:07.975Z,5.70
2023-05-05T05:05:10.099Z,5.38
2023-05-05T05:10:11.916Z,5.85
2023-05-05T05:15:13.734Z,5.65
2023-05-05T05:20:15.553Z,6.07
2023-05-05T05:25:17.334Z,6.88
2023-05-05T05:30:20.040Z,6.13
2023-05-05T05:35:21.778Z,5.72
2023-05-05T05:40:23.492Z,6.20
2023-05-05T05:45:25.275Z,5.90
2023-05-05T05:50:28.734Z,5.95
2023-05-05T05:55:32.768Z,5.57
2023-05-05T06:00:34.960Z,5.93
2023-05-05T06:05:41.756Z,6.47
2023-05-05T06:10:43.821Z,6.95
2023-05-05T06:15:50.535Z,7.65
2023-05-05T06:20:52.960Z,6.50
2023-05-05T06:25:57.980Z,6.88
2023-05-05T06:30:59.649Z,6.65
2023-05-05T06:36:01.341Z,6.22
2023-05-05T06:41:02.997Z,6.75
2023-05-05T06:46:04.763Z,7.05
2023-05-05T06:51:06.730Z,5.70
2023-05-05T06:56:08.455Z,6.28
2023-05-05T07:01:10.179Z,4.97
2023-05-05T07:06:11.898Z,4.55
2023-05-05T07:11:13.510Z,5.18
2023-05-05T07:16:15.391Z,4.80
2023-05-05T07:21:17.019Z,4.68
2023-05-05T07:26:18.723Z,4.28
2023-05-05T07:31:22.019Z,3.15
2023-05-05T07:36:23.724Z,3.25
2023-05-05T07:41:25.395Z,2.50
2023-05-05T07:46:27.299Z,3.15
2023-05-05T07:51:29.008Z,2.50
2023-05-05T07:56:30.703Z,2.47
2023-05-05T08:01:32.375Z,2.83
2023-05-05T08:06:34.058Z,2.75
2023-05-05T08:11:35.717Z,2.88
2023-05-05T08:16:37.396Z,2.40
2023-05-05T08:21:39.123Z,3.50
2023-05-05T08:26:40.869Z,2.85
2023-05-05T08:31:42.673Z,3.22
2023-05-05T08:36:44.347Z,2.60
2023-05-05T08:41:46.163Z,2.42
2023-05-05T08:46:49.672Z,3.00
2023-05-05T08:51:54.150Z,2.78
2023-05-05T08:57:01.893Z,2.40
2023-05-05T09:02:04.947Z,2.50
2023-05-05T09:07:06.733Z,2.38
2023-05-05T09:12:08.380Z,2.72
2023-05-05T09:17:25.738Z,2.55
2023-05-05T09:22:35.472Z,2.25
2023-05-05T09:27:42.776Z,2.67
2023-05-05T09:32:49.036Z,3.72
2023-05-05T09:37:50.827Z,1.83
2023-05-05T09:43:01.851Z,1.70
2023-05-05T09:48:06.357Z,1.80
2023-05-05T09:53:08.225Z,2.05
2023-05-05T09:58:20.257Z,2.08
2023-05-05T10:03:22.920Z,2.30
2023-05-05T10:08:27.106Z,1.77
2023-05-05T10:13:28.973Z,1.38
2023-05-05T10:18:32.012Z,1.60
2023-05-05T10:23:41.686Z,1.67
2023-05-05T10:28:56.612Z,1.83
2023-05-05T10:34:04.150Z,2.42
2023-05-05T10:39:10.923Z,1.30
2023-05-05T10:44:14.618Z,1.67
2023-05-05T10:49:40.794Z,1.30
2023-05-05T10:54:49.862Z,2.03
2023-05-05T10:59:51.978Z,2.25
2023-05-05T11:05:18.367Z,1.70
2023-05-05T11:10:21.222Z,1.98
2023-05-05T11:15:31.656Z,1.55
2023-05-05T11:20:36.825Z,1.80
2023-05-05T11:25:40.667Z,2.33
2023-05-05T11:30:58.656Z,1.67
2023-05-05T11:36:05.971Z,2.10
2023-05-05T11:41:27.876Z,1.63
2023-05-05T11:46:29.530Z,1.80
2023-05-05T11:51:31.623Z,2.00
2023-05-05T11:56:33.289Z,2.33
2023-05-05T12:01:35.899Z,2.25
2023-05-05T12:06:37.654Z,2.05
2023-05-05T12:11:52.536Z,1.90
2023-05-05T12:16:58.529Z,2.22
2023-05-05T12:22:04.968Z,1.88
2023-05-05T12:27:11.003Z,1.83
2023-05-05T12:32:24.058Z,1.48
2023-05-05T12:37:27.557Z,2.55
2023-05-05T12:42:29.325Z,2.80
2023-05-05T12:47:32.316Z,2.33
2023-05-05T12:52:43.947Z,2.28
2023-05-05T12:58:02.110Z,1.52
2023-05-05T13:03:06.089Z,2.03
2023-05-05T13:08:07.776Z,1.88
2023-05-05T13:13:09.761Z,1.85
2023-05-05T13:18:11.452Z,2.33
2023-05-05T13:23:13.143Z,2.42
2023-05-05T13:28:14.756Z,2.30
2023-05-05T13:33:16.398Z,2.25
2023-05-05T13:38:18.066Z,1.83
2023-05-05T13:43:20.638Z,2.15
2023-05-05T13:48:22.483Z,1.95
2023-05-05T13:53:24.076Z,1.92
2023-05-05T13:58:25.762Z,1.83
2023-05-05T14:03:27.389Z,2.25
2023-05-05T14:08:29.036Z,2.28
2023-05-05T14:13:30.670Z,2.08
2023-05-05T14:18:32.320Z,2.03
2023-05-05T14:23:33.980Z,1.90
2023-05-05T14:28:35.725Z,2.17
2023-05-05T14:33:37.396Z,1.98
2023-05-05T14:38:39.044Z,2.00
2023-05-05T14:43:41.025Z,2.00
2023-05-05T14:48:42.775Z,1.85
2023-05-05T14:53:44.514Z,1.80
2023-05-05T14:58:47.730Z,2.00
2023-05-05T15:03:52.082Z,2.20
2023-05-05T15:08:53.916Z,1.92
2023-05-05T15:13:55.526Z,2.30
2023-05-05T15:18:57.403Z,1.65
2023-05-05T15:23:59.008Z,2.30
2023-05-05T15:29:00.724Z,2.22
2023-05-05T15:34:02.345Z,1.98
2023-05-05T15:39:04.424Z,1.80
2023-05-05T15:44:06.100Z,1.95
2023-05-05T15:49:07.727Z,1.90
2023-05-05T15:54:09.379Z,2.35
2023-05-05T15:59:11.035Z,2.65
2023-05-05T16:04:12.761Z,1.92
2023-05-05T16:09:14.379Z,1.83
2023-05-05T16:14:16.095Z,1.83
2023-05-05T16:19:18.168Z,2.03
2023-05-05T16:24:19.858Z,1.80
2023-05-05T16:29:21.528Z,2.65
2023-05-05T16:34:23.128Z,1.75
2023-05-05T16:39:26.233Z,2.15
2023-05-05T16:44:27.884Z,1.95
2023-05-05T16:49:29.531Z,1.85
2023-05-05T16:54:31.154Z,2.10
2023-05-05T16:59:32.766Z,2.33
2023-05-05T17:04:34.364Z,2.08
2023-05-05T17:09:36.035Z,2.28
2023-05-05T17:14:37.715Z,1.88
2023-05-05T17:19:39.385Z,2.28
2023-05-05T17:24:40.996Z,2.50
2023-05-05T17:29:42.607Z,1.98
2023-05-05T17:34:44.214Z,2.35
2023-05-05T17:39:45.820Z,2.13
2023-05-05T17:44:47.736Z,2.17
2023-05-05T17:49:49.412Z,2.50
2023-05-05T17:54:52.167Z,2.25
2023-05-05T17:59:53.960Z,1.92
2023-05-05T18:04:55.606Z,2.60
2023-05-05T18:09:57.235Z,2.92
2023-05-05T18:14:58.843Z,2.17
2023-05-05T18:20:00.575Z,2.25
2023-05-05T18:25:02.208Z,2.75
2023-05-05T18:30:04.874Z,2.22
2023-05-05T18:35:07.221Z,2.70
2023-05-05T18:40:10.195Z,2.58
2023-05-05T18:45:11.915Z,2.30
2023-05-05T18:50:13.628Z,1.90
2023-05-05T18:55:15.267Z,2.10
2023-05-05T19:00:19.853Z,2.55
2023-05-05T19:05:21.673Z,2.78
2023-05-05T19:10:23.375Z,2.15
2023-05-05T19:15:26.012Z,2.80
2023-05-05T19:20:27.969Z,3.60
2023-05-05T19:25:30.589Z,3.25
2023-05-05T19:30:32.367Z,3.35
2023-05-05T19:35:33.993Z,3.50
2023-05-05T19:40:37.163Z,2.90
2023-05-05T19:45:38.779Z,3.30
2023-05-05T19:50:40.441Z,2.78
2023-05-05T19:55:42.048Z,3.25
2023-05-05T20:00:43.662Z,3.20
2023-05-05T20:05:45.291Z,2.85
2023-05-05T20:10:47.124Z,2.90
2023-05-05T20:15:48.797Z,3.08
2023-05-05T20:20:51.175Z,2.90
2023-05-05T20:25:54.080Z,2.70
2023-05-05T20:30:55.680Z,2.42
2023-05-05T20:35:57.302Z,3.47
2023-05-05T20:40:59.207Z,3.45
2023-05-05T20:46:01.423Z,3.00
2023-05-05T20:51:04.345Z,2.92
2023-05-05T20:56:08.009Z,3.35
2023-05-05T21:01:10.373Z,3.80
2023-05-05T21:06:12.041Z,2.88
2023-05-05T21:11:13.726Z,3.67
2023-05-05T21:16:15.343Z,4.30
2023-05-05T21:21:17.269Z,4.82
2023-05-05T21:26:18.923Z,4.70
2023-05-05T21:31:22.233Z,4.40
2023-05-05T21:36:24.825Z,4.05
2023-05-05T21:41:27.036Z,2.85
2023-05-05T21:46:28.943Z,3.05
2023-05-05T21:51:31.264Z,3.47
2023-05-05T21:56:34.033Z,3.10
2023-05-05T22:01:35.662Z,2.90
2023-05-05T22:06:37.289Z,2.70
2023-05-05T22:11:38.953Z,3.55
2023-05-05T22:16:40.658Z,3.00
2023-05-05T22:21:42.361Z,3.78
2023-05-05T22:26:43.979Z,3.70
2023-05-05T22:31:45.658Z,3.38
2023-05-05T22:36:48.419Z,3.40
2023-05-05T22:41:50.020Z,3.60
2023-05-05T22:46:51.731Z,3.40
2023-05-05T22:51:53.718Z,3.15
2023-05-05T22:56:55.339Z,4.38
2023-05-05T23:01:56.941Z,3.88
2023-05-05T23:06:58.595Z,5.03
2023-05-05T23:12:00.653Z,5.28
2023-05-05T23:17:02.403Z,5.50
2023-05-05T23:22:04.814Z,6.22
2023-05-05T23:27:06.492Z,6.53
2023-05-05T23:32:08.379Z,6.88
2023-05-05T23:37:10.027Z,8.73
2023-05-05T23:42:11.631Z,7.85
2023-05-05T23:47:13.433Z,11.70
2023-05-05T23:52:15.108Z,18.92
2023-05-05T23:57:16.901Z,17.20
